Time;durP1;ratioP1;P1;durP2;ratioP2;P2;SDS_P1;SDS_P2;PMS_P1;PMS_P2;Temp;Humidity;BMP_temperature;BMP_pressure;BME280_temperature;BME280_humidity;BME280_pressure;Samples;Min_cycle;Max_cycle;Signal;HPM_P1;HPM_P2
2023/11/29 05:06:12;;;;;;;0.38;0.38;;;0.80;99.90;;;;;;5493174;23;20239;-62
2023/11/29 05:08:38;;;;;;;0.38;0.38;;;0.90;99.90;;;;;;4977583;28;20648;-63
2023/11/29 05:11:04;;;;;;;0.60;0.60;;;0.90;99.90;;;;;;4975790;28;20293;-61
2023/11/29 05:13:30;;;;;;;0.40;0.40;;;1.00;99.90;;;;;;4976852;28;20423;-62
2023/11/29 05:15:56;;;;;;;0.40;0.40;;;1.10;99.90;;;;;;4966416;28;20201;-62
2023/11/29 05:18:22;;;;;;;0.50;0.50;;;1.10;99.90;;;;;;4957411;29;20181;-63
2023/11/29 05:20:48;;;;;;;0.50;0.50;;;1.10;99.90;;;;;;4958040;29;20515;-63
2023/11/29 05:23:14;;;;;;;0.50;0.50;;;1.10;99.90;;;;;;4957988;29;20466;-62
2023/11/29 05:25:39;;;;;;;0.30;0.30;;;1.10;99.90;;;;;;4957353;28;20191;-62
2023/11/29 05:28:06;;;;;;;0.30;0.30;;;1.10;99.90;;;;;;4957112;29;20499;-62
2023/11/29 05:30:31;;;;;;;0.40;0.40;;;1.20;99.90;;;;;;4957403;29;20184;-62
2023/11/29 05:32:57;;;;;;;0.30;0.30;;;1.20;99.90;;;;;;4957752;29;20173;-62
2023/11/29 05:35:23;;;;;;;0.30;0.30;;;1.20;99.90;;;;;;4955720;28;20444;-63
2023/11/29 05:37:48;;;;;;;0.30;0.30;;;1.20;99.90;;;;;;4957787;29;20180;-63
2023/11/29 05:40:14;;;;;;;0.40;0.40;;;1.20;99.90;;;;;;4957713;29;20181;-61
2023/11/29 05:42:40;;;;;;;0.40;0.40;;;1.20;99.90;;;;;;4956720;28;20722;-61
2023/11/29 05:45:07;;;;;;;0.30;0.30;;;1.20;99.90;;;;;;4956860;28;20660;-62
2023/11/29 05:47:33;;;;;;;0.30;0.30;;;1.20;99.90;;;;;;4957452;29;20177;-63
2023/11/29 05:50:02;;;;;;;0.50;0.50;;;1.20;99.90;;;;;;4957498;29;20264;-62
2023/11/29 05:52:28;;;;;;;0.40;0.40;;;1.20;99.90;;;;;;4957438;29;20187;-62
2023/11/29 05:54:53;;;;;;;0.40;0.40;;;1.20;99.90;;;;;;4956744;28;20636;-61
2023/11/29 05:57:19;;;;;;;0.40;0.40;;;1.20;99.90;;;;;;4957283;29;20234;-62
2023/11/29 05:59:45;;;;;;;0.40;0.40;;;1.20;99.90;;;;;;4957355;29;20252;-63
2023/11/29 06:02:10;;;;;;;0.30;0.30;;;1.20;99.90;;;;;;4957297;29;20211;-63
2023/11/29 06:04:37;;;;;;;0.40;0.40;;;1.30;99.90;;;;;;4956405;29;20177;-63
2023/11/29 06:07:03;;;;;;;0.30;0.30;;;1.30;99.90;;;;;;4939275;29;20208;-61
2023/11/29 06:09:30;;;;;;;0.30;0.30;;;1.30;99.90;;;;;;4956950;29;20208;-63
2023/11/29 06:11:59;;;;;;;0.40;0.40;;;1.40;99.90;;;;;;4957199;29;20181;-63
2023/11/29 06:14:27;;;;;;;0.40;0.40;;;1.40;99.90;;;;;;4956016;29;20264;-62
2023/11/29 06:16:53;;;;;;;0.30;0.30;;;1.40;99.90;;;;;;4957029;28;20197;-61
2023/11/29 06:19:20;;;;;;;0.30;0.30;;;1.50;99.90;;;;;;4940166;29;20239;-62
2023/11/29 06:21:46;;;;;;;0.30;0.30;;;1.40;99.90;;;;;;4957409;29;20208;-63
2023/11/29 06:24:12;;;;;;;0.30;0.30;;;1.50;99.90;;;;;;4955618;28;20177;-66
2023/11/29 06:26:37;;;;;;;0.30;0.30;;;1.50;99.90;;;;;;4964192;28;20441;-62
2023/11/29 06:29:04;;;;;;;0.40;0.40;;;1.50;99.90;;;;;;4957132;29;20169;-63
2023/11/29 06:31:31;;;;;;;0.30;0.30;;;1.50;99.90;;;;;;4967871;28;20426;-62
2023/11/29 06:33:57;;;;;;;0.40;0.40;;;1.50;99.90;;;;;;4964500;28;20185;-63
2023/11/29 06:36:23;;;;;;;0.30;0.30;;;1.50;99.90;;;;;;4956142;28;20317;-62
2023/11/29 06:38:48;;;;;;;0.40;0.40;;;1.50;99.90;;;;;;4956443;28;20630;-63
2023/11/29 06:41:14;;;;;;;0.50;0.50;;;1.40;99.90;;;;;;4963704;28;20184;-63
2023/11/29 06:43:39;;;;;;;0.50;0.50;;;1.40;99.90;;;;;;4970752;28;20200;-62
2023/11/29 06:46:05;;;;;;;0.53;0.53;;;1.40;99.90;;;;;;4975305;28;20195;-67
2023/11/29 06:48:34;;;;;;;1.80;1.23;;;1.40;99.90;;;;;;4960231;28;20184;-65
2023/11/29 06:51:02;;;;;;;0.30;0.30;;;1.40;99.90;;;;;;4955228;29;20180;-68
2023/11/29 06:53:28;;;;;;;0.40;0.40;;;1.40;99.90;;;;;;4956377;28;20176;-66
2023/11/29 06:55:55;;;;;;;0.30;0.30;;;1.40;99.90;;;;;;4955974;28;20283;-65
2023/11/29 06:58:21;;;;;;;0.40;0.40;;;1.50;99.90;;;;;;4966235;28;20188;-64
2023/11/29 07:00:46;;;;;;;0.30;0.30;;;1.40;99.90;;;;;;4942000;29;20279;-64
2023/11/29 07:03:13;;;;;;;0.40;0.40;;;1.50;99.90;;;;;;4955356;29;20467;-64
2023/11/29 07:05:39;;;;;;;0.40;0.40;;;1.50;99.90;;;;;;4954748;28;20207;-64
2023/11/29 07:08:06;;;;;;;0.30;0.30;;;1.50;99.90;;;;;;4956132;28;20690;-64
2023/11/29 07:10:33;;;;;;;0.40;0.40;;;1.50;99.90;;;;;;4955605;29;20208;-63
2023/11/29 07:12:59;;;;;;;0.40;0.40;;;1.50;99.90;;;;;;4956585;28;20529;-66
2023/11/29 07:15:25;;;;;;;0.40;0.40;;;1.50;99.90;;;;;;4960937;28;20675;-63
2023/11/29 07:17:51;;;;;;;0.50;0.50;;;1.50;99.90;;;;;;4974972;28;20914;-62
2023/11/29 07:20:17;;;;;;;0.30;0.30;;;1.60;99.90;;;;;;4965430;28;20728;-70
2023/11/29 07:22:43;;;;;;;0.30;0.30;;;1.60;99.90;;;;;;4956542;28;20452;-70
2023/11/29 07:25:12;;;;;;;0.40;0.40;;;1.70;99.90;;;;;;4954539;28;20278;-68
2023/11/29 07:27:39;;;;;;;0.40;0.40;;;1.70;99.90;;;;;;4955735;28;20440;-69
2023/11/29 07:30:05;;;;;;;0.38;0.38;;;1.70;99.90;;;;;;4956530;28;20267;-72
2023/11/29 07:32:31;;;;;;;0.30;0.30;;;1.70;99.90;;;;;;4961047;28;21554;-68
2023/11/29 07:34:57;;;;;;;0.40;0.40;;;1.70;99.90;;;;;;4966191;28;20297;-68
2023/11/29 07:37:23;;;;;;;0.40;0.40;;;1.70;99.90;;;;;;4954051;29;20561;-66
2023/11/29 07:39:48;;;;;;;1.50;1.07;;;1.70;99.90;;;;;;4969422;28;20180;-68
2023/11/29 07:42:14;;;;;;;0.40;0.40;;;1.80;99.90;;;;;;4973116;28;20283;-68
2023/11/29 07:44:43;;;;;;;0.43;0.43;;;1.80;99.90;;;;;;4971384;28;20180;-68
2023/11/29 07:47:10;;;;;;;0.40;0.40;;;1.90;99.90;;;;;;4955077;28;20684;-68
2023/11/29 07:49:35;;;;;;;0.30;0.30;;;1.90;99.90;;;;;;4974583;28;20506;-69
2023/11/29 07:52:02;;;;;;;0.30;0.30;;;2.00;99.90;;;;;;4968976;28;20183;-68
2023/11/29 07:54:28;;;;;;;0.40;0.40;;;2.00;99.90;;;;;;4942485;29;20264;-71
2023/11/29 07:56:54;;;;;;;0.40;0.40;;;2.00;99.90;;;;;;4939197;28;20201;-70
2023/11/29 07:59:19;;;;;;;0.40;0.40;;;2.10;99.90;;;;;;4974657;28;20227;-69
2023/11/29 08:01:45;;;;;;;0.40;0.40;;;2.10;99.90;;;;;;4974359;28;20200;-71
2023/11/29 08:04:11;;;;;;;0.30;0.30;;;2.20;99.90;;;;;;4973851;28;20227;-69
2023/11/29 08:06:36;;;;;;;0.40;0.40;;;2.20;99.90;;;;;;4945060;28;20560;-69
2023/11/29 08:09:03;;;;;;;0.33;0.33;;;2.30;99.90;;;;;;4956243;28;20177;-68
2023/11/29 08:11:29;;;;;;;0.50;0.50;;;2.30;99.90;;;;;;4974529;28;20413;-69
2023/11/29 08:13:55;;;;;;;0.40;0.40;;;2.30;99.90;;;;;;4974231;28;20220;-70
2023/11/29 08:16:20;;;;;;;0.40;0.40;;;2.40;99.90;;;;;;4964660;28;20197;-69
2023/11/29 08:18:46;;;;;;;0.40;0.40;;;2.40;99.90;;;;;;4955259;29;20177;-69
2023/11/29 08:21:12;;;;;;;0.30;0.30;;;2.50;99.90;;;;;;4955177;29;20563;-70
2023/11/29 08:23:37;;;;;;;0.30;0.30;;;2.50;99.90;;;;;;4937429;29;20201;-70
2023/11/29 08:26:04;;;;;;;0.30;0.30;;;2.50;99.90;;;;;;4953974;28;20687;-66
2023/11/29 08:28:30;;;;;;;0.43;0.43;;;2.60;99.90;;;;;;4955068;29;20185;-66
2023/11/29 08:30:56;;;;;;;0.30;0.30;;;2.60;99.90;;;;;;4954964;29;20173;-68
2023/11/29 08:33:21;;;;;;;0.40;0.40;;;2.60;99.90;;;;;;4954815;29;20200;-68
2023/11/29 08:35:47;;;;;;;0.40;0.40;;;2.60;99.90;;;;;;4954274;28;20204;-67
2023/11/29 08:38:13;;;;;;;0.30;0.30;;;2.60;99.90;;;;;;4954895;29;20227;-66
2023/11/29 08:40:39;;;;;;;0.40;0.40;;;2.60;99.90;;;;;;4954826;29;20177;-67
2023/11/29 08:43:06;;;;;;;0.30;0.30;;;2.70;99.90;;;;;;4954871;29;20252;-68
2023/11/29 08:45:32;;;;;;;0.40;0.40;;;2.70;99.90;;;;;;4954442;28;20220;-67
2023/11/29 08:47:58;;;;;;;0.30;0.30;;;2.70;99.90;;;;;;4935854;29;20276;-66
2023/11/29 08:50:24;;;;;;;0.30;0.30;;;2.80;99.90;;;;;;4935593;29;20701;-68
2023/11/29 08:52:51;;;;;;;0.40;0.40;;;2.80;99.90;;;;;;4918581;29;20513;-67
2023/11/29 08:55:16;;;;;;;0.35;0.35;;;2.90;99.90;;;;;;4935402;29;20705;-68
2023/11/29 08:57:42;;;;;;;0.40;0.40;;;2.90;99.90;;;;;;4952978;29;20181;-68
2023/11/29 09:00:11;;;;;;;0.40;0.40;;;3.00;99.90;;;;;;4954897;29;20177;-67
2023/11/29 09:02:37;;;;;;;0.30;0.30;;;3.10;99.90;;;;;;4954484;29;20296;-67
2023/11/29 09:05:03;;;;;;;0.30;0.30;;;3.20;99.90;;;;;;4955387;28;20220;-67
2023/11/29 09:07:30;;;;;;;0.40;0.40;;;3.30;99.90;;;;;;4963796;28;20199;-70
2023/11/29 09:09:58;;;;;;;0.40;0.40;;;3.30;99.90;;;;;;4974054;28;20174;-66
2023/11/29 09:12:25;;;;;;;0.30;0.30;;;3.30;99.90;;;;;;4958720;28;20186;-65
2023/11/29 09:14:55;;;;;;;0.30;0.30;;;3.30;99.90;;;;;;4953891;28;20178;-66
2023/11/29 09:17:22;;;;;;;0.35;0.35;;;3.30;99.90;;;;;;4973401;28;20182;-65
2023/11/29 09:19:49;;;;;;;1.77;1.67;;;3.40;99.90;;;;;;4976893;28;20183;-65
2023/11/29 09:22:14;;;;;;;0.30;0.30;;;3.30;99.90;;;;;;4977342;28;20212;-66
2023/11/29 09:24:40;;;;;;;0.40;0.40;;;3.40;99.90;;;;;;4974530;28;20252;-65
2023/11/29 09:27:06;;;;;;;0.30;0.30;;;3.40;99.90;;;;;;4966580;28;20180;-65
2023/11/29 09:29:32;;;;;;;0.30;0.30;;;3.40;99.90;;;;;;4964108;28;20179;-65
2023/11/29 09:31:59;;;;;;;0.55;0.55;;;3.40;99.90;;;;;;4972734;28;20213;-64
2023/11/29 09:34:24;;;;;;;0.40;0.40;;;3.40;99.90;;;;;;4976720;28;20176;-65
2023/11/29 09:36:53;;;;;;;0.30;0.30;;;3.40;99.90;;;;;;4977014;28;20653;-64
2023/11/29 09:39:19;;;;;;;0.40;0.40;;;3.50;99.90;;;;;;4976813;28;20205;-64
2023/11/29 09:41:47;;;;;;;0.45;0.45;;;3.50;99.90;;;;;;4975110;28;20210;-65
2023/11/29 09:44:13;;;;;;;0.40;0.40;;;3.50;99.90;;;;;;4975465;28;20174;-65
2023/11/29 09:46:39;;;;;;;0.50;0.50;;;3.50;99.90;;;;;;4968214;28;20436;-65
2023/11/29 09:49:05;;;;;;;0.40;0.40;;;3.60;99.90;;;;;;4971619;28;20182;-64
2023/11/29 09:51:32;;;;;;;0.40;0.40;;;3.60;99.90;;;;;;4959287;28;20184;-65
2023/11/29 09:53:58;;;;;;;0.35;0.35;;;3.70;99.90;;;;;;4961960;28;20198;-64
2023/11/29 09:56:24;;;;;;;0.30;0.30;;;3.70;99.90;;;;;;4976066;28;20188;-65
2023/11/29 09:58:50;;;;;;;0.33;0.33;;;3.70;99.90;;;;;;4968637;28;20186;-65
2023/11/29 10:01:16;;;;;;;0.32;0.32;;;3.70;99.90;;;;;;4939951;29;20418;-66
2023/11/29 10:03:42;;;;;;;0.40;0.40;;;3.70;99.90;;;;;;4957238;29;20581;-66
2023/11/29 10:06:08;;;;;;;0.40;0.40;;;3.70;99.90;;;;;;4956382;28;20430;-64
2023/11/29 10:08:35;;;;;;;0.57;0.57;;;3.70;99.90;;;;;;4957171;29;20310;-65
2023/11/29 10:11:01;;;;;;;0.82;0.77;;;3.80;99.90;;;;;;4957059;29;20184;-67
2023/11/29 10:13:28;;;;;;;0.30;0.30;;;3.80;99.90;;;;;;4956892;29;20173;-66
2023/11/29 10:15:57;;;;;;;0.30;0.30;;;3.80;99.90;;;;;;4956624;28;20191;-64
2023/11/29 10:18:23;;;;;;;0.30;0.30;;;3.80;99.90;;;;;;4956923;29;20177;-64
2023/11/29 10:20:50;;;;;;;0.33;0.33;;;3.80;99.90;;;;;;4957044;29;20180;-65
2023/11/29 10:23:16;;;;;;;0.40;0.40;;;3.80;99.90;;;;;;4956774;29;20205;-66
2023/11/29 10:25:44;;;;;;;0.30;0.30;;;3.70;99.90;;;;;;4956359;28;20206;-67
2023/11/29 10:28:09;;;;;;;0.40;0.40;;;3.70;99.90;;;;;;4967251;28;20181;-66
2023/11/29 10:30:35;;;;;;;0.40;0.40;;;3.70;99.90;;;;;;4958567;28;20224;-65
2023/11/29 10:33:03;;;;;;;0.30;0.30;;;3.80;99.90;;;;;;4968752;28;20681;-67
2023/11/29 10:35:34;;;;;;;0.30;0.30;;;3.80;99.90;;;;;;4938870;29;20442;-65
2023/11/29 10:38:12;;;;;;;0.30;0.30;;;3.90;99.90;;;;;;4955852;29;20186;-64
2023/11/29 10:40:39;;;;;;;0.30;0.30;;;4.00;99.90;;;;;;4956697;28;20537;-64
2023/11/29 10:43:09;;;;;;;0.30;0.30;;;4.10;99.90;;;;;;4956705;29;20209;-63
2023/11/29 10:45:36;;;;;;;0.50;0.50;;;4.10;99.90;;;;;;4962774;28;20523;-64
2023/11/29 10:48:07;;;;;;;0.30;0.30;;;4.10;99.90;;;;;;4974475;28;20178;-65
2023/11/29 10:50:35;;;;;;;0.30;0.30;;;4.20;99.90;;;;;;4956254;29;20214;-65
2023/11/29 10:53:02;;;;;;;0.30;0.30;;;4.10;99.90;;;;;;4957462;28;20538;-65
2023/11/29 10:55:27;;;;;;;0.30;0.30;;;4.00;99.90;;;;;;4956985;28;20209;-67
2023/11/29 10:58:06;;;;;;;0.30;0.30;;;4.00;99.90;;;;;;4975424;28;20177;-68
2023/11/29 11:00:32;;;;;;;0.30;0.30;;;3.90;99.90;;;;;;4975504;28;20173;-66
2023/11/29 11:02:58;;;;;;;0.30;0.30;;;3.90;99.90;;;;;;4963609;28;20196;-66
2023/11/29 11:05:29;;;;;;;0.40;0.40;;;3.90;99.90;;;;;;4955538;28;20202;-66
2023/11/29 11:07:54;;;;;;;0.32;0.32;;;4.00;99.90;;;;;;4938220;29;20685;-66
2023/11/29 11:10:27;;;;;;;0.30;0.30;;;4.00;99.90;;;;;;4954927;28;20188;-65
2023/11/29 11:12:55;;;;;;;0.30;0.30;;;4.00;99.90;;;;;;4955601;29;20178;-65
2023/11/29 11:15:25;;;;;;;0.40;0.40;;;4.00;99.90;;;;;;4955561;28;20332;-66
2023/11/29 11:18:06;;;;;;;0.30;0.30;;;4.10;99.90;;;;;;4955499;29;20230;-66
2023/11/29 11:20:49;;;;;;;0.32;0.32;;;4.10;99.90;;;;;;4956067;28;20204;-66
2023/11/29 11:23:22;;;;;;;0.30;0.30;;;4.10;99.90;;;;;;4953713;29;20210;-66
2023/11/29 11:25:50;;;;;;;0.50;0.50;;;4.10;99.90;;;;;;4963269;28;20204;-66
2023/11/29 11:28:27;;;;;;;0.40;0.40;;;4.20;99.90;;;;;;4973428;28;20560;-64
2023/11/29 11:30:53;;;;;;;0.30;0.30;;;4.20;99.90;;;;;;4973444;28;20642;-66
2023/11/29 11:33:19;;;;;;;0.30;0.30;;;4.30;99.90;;;;;;4973373;28;20551;-66
2023/11/29 11:35:45;;;;;;;0.30;0.30;;;4.30;99.90;;;;;;4972872;28;20209;-66
2023/11/29 11:38:11;;;;;;;0.30;0.30;;;4.40;99.90;;;;;;4974850;28;20167;-66
2023/11/29 11:40:39;;;;;;;0.30;0.30;;;4.40;99.90;;;;;;4967186;28;20257;-66
2023/11/29 11:43:06;;;;;;;0.30;0.30;;;4.40;99.90;;;;;;4955343;29;20232;-66
2023/11/29 11:45:33;;;;;;;0.88;0.88;;;4.40;99.90;;;;;;4956016;28;20217;-65
2023/11/29 11:48:00;;;;;;;0.30;0.30;;;4.50;99.90;;;;;;4955767;29;20573;-66
2023/11/29 11:50:26;;;;;;;0.30;0.30;;;4.50;99.90;;;;;;4955407;29;20174;-65
2023/11/29 11:52:59;;;;;;;0.30;0.30;;;4.60;99.90;;;;;;4955565;29;20559;-66
2023/11/29 11:55:25;;;;;;;0.38;0.38;;;4.70;99.90;;;;;;4955926;28;20207;-65
2023/11/29 11:57:50;;;;;;;0.30;0.30;;;4.80;99.90;;;;;;4936161;29;20192;-65
2023/11/29 12:00:17;;;;;;;0.30;0.30;;;4.80;99.90;;;;;;4943761;28;20180;-65
2023/11/29 12:02:43;;;;;;;0.30;0.30;;;4.90;99.90;;;;;;4957628;28;20559;-65
2023/11/29 12:05:09;;;;;;;0.30;0.30;;;4.80;99.90;;;;;;4974161;28;20191;-66
2023/11/29 12:07:39;;;;;;;0.50;0.50;;;4.90;99.90;;;;;;4974376;28;20198;-67
2023/11/29 12:10:08;;;;;;;0.30;0.30;;;4.80;99.90;;;;;;4965395;28;20186;-66
2023/11/29 12:12:34;;;;;;;0.38;0.38;;;4.90;99.90;;;;;;4955181;29;20169;-67
2023/11/29 12:15:02;;;;;;;0.40;0.40;;;4.90;99.90;;;;;;4954722;28;20270;-67
2023/11/29 12:17:32;;;;;;;0.30;0.30;;;5.00;99.90;;;;;;4944718;28;20230;-65
2023/11/29 12:19:59;;;;;;;0.30;0.30;;;4.90;99.90;;;;;;4957182;28;20681;-65
2023/11/29 12:22:25;;;;;;;0.30;0.30;;;5.00;99.90;;;;;;4974422;28;20194;-65
2023/11/29 12:24:51;;;;;;;0.30;0.30;;;5.10;99.90;;;;;;4972476;28;20230;-65
2023/11/29 12:27:17;;;;;;;0.30;0.30;;;5.20;99.90;;;;;;4974322;28;20381;-65
2023/11/29 12:29:49;;;;;;;0.30;0.30;;;5.20;99.90;;;;;;4974469;28;20178;-66
2023/11/29 12:32:15;;;;;;;0.30;0.30;;;5.30;99.90;;;;;;4974475;28;20230;-67
2023/11/29 12:34:42;;;;;;;0.30;0.30;;;5.40;99.90;;;;;;4973827;28;20179;-66
2023/11/29 12:37:14;;;;;;;0.30;0.30;;;5.40;99.90;;;;;;4972944;28;20191;-67
2023/11/29 12:39:41;;;;;;;0.30;0.30;;;5.40;99.90;;;;;;4970983;28;20534;-68
2023/11/29 12:42:09;;;;;;;0.30;0.30;;;5.30;99.90;;;;;;4974123;28;20291;-68
2023/11/29 12:44:35;;;;;;;0.30;0.30;;;5.20;99.90;;;;;;4973868;28;20300;-67
2023/11/29 12:47:01;;;;;;;0.30;0.30;;;5.10;99.90;;;;;;4963931;28;20586;-68
2023/11/29 12:49:27;;;;;;;0.50;0.50;;;5.00;99.90;;;;;;4954592;29;20196;-66
2023/11/29 12:51:53;;;;;;;0.30;0.30;;;5.00;99.90;;;;;;4961215;28;20279;-66
2023/11/29 12:54:19;;;;;;;0.30;0.30;;;5.00;99.90;;;;;;4960934;28;20492;-67
2023/11/29 12:56:44;;;;;;;0.30;0.30;;;4.90;99.90;;;;;;4958184;28;20189;-69
2023/11/29 12:59:10;;;;;;;0.33;0.33;;;5.00;99.90;;;;;;4958376;29;20261;-65
2023/11/29 13:01:36;;;;;;;0.30;0.30;;;5.00;99.90;;;;;;4962359;28;20176;-67
2023/11/29 13:04:03;;;;;;;0.50;0.50;;;5.10;99.90;;;;;;4976867;28;20730;-70
2023/11/29 13:06:28;;;;;;;0.30;0.30;;;5.30;99.90;;;;;;4975403;28;20338;-64
2023/11/29 13:08:55;;;;;;;0.30;0.30;;;5.50;99.90;;;;;;4975251;28;20265;-67
2023/11/29 13:11:21;;;;;;;0.30;0.30;;;5.60;99.90;;;;;;4973240;28;20989;-65
2023/11/29 13:13:48;;;;;;;0.50;0.45;;;5.80;99.90;;;;;;4975929;28;20176;-67
2023/11/29 13:16:14;;;;;;;0.30;0.30;;;5.80;99.90;;;;;;4966634;28;20255;-68
2023/11/29 13:18:40;;;;;;;0.35;0.35;;;5.80;99.90;;;;;;4952746;28;20184;-67
2023/11/29 13:21:06;;;;;;;0.30;0.30;;;5.70;99.90;;;;;;4977270;28;20602;-66
2023/11/29 13:23:32;;;;;;;0.40;0.40;;;5.60;99.90;;;;;;4976751;28;20454;-67
2023/11/29 13:25:58;;;;;;;0.28;0.20;;;5.50;99.90;;;;;;4976949;28;20190;-67
2023/11/29 13:28:25;;;;;;;0.30;0.30;;;5.30;99.90;;;;;;4977441;28;20188;-68
2023/11/29 13:30:51;;;;;;;0.30;0.30;;;5.20;99.90;;;;;;4971006;28;20172;-67
2023/11/29 13:33:18;;;;;;;0.30;0.30;;;5.10;99.90;;;;;;4970335;28;20703;-68
2023/11/29 13:35:44;;;;;;;0.30;0.30;;;4.90;99.90;;;;;;4958105;28;20212;-69
2023/11/29 13:38:09;;;;;;;0.30;0.30;;;4.80;99.90;;;;;;4959359;28;20168;-69
2023/11/29 13:40:35;;;;;;;0.37;0.37;;;4.80;99.90;;;;;;4976565;28;20429;-69
2023/11/29 13:43:01;;;;;;;0.30;0.30;;;4.90;99.90;;;;;;4972069;28;20202;-68
2023/11/29 13:45:26;;;;;;;0.30;0.30;;;4.90;99.90;;;;;;4956961;28;20197;-68
2023/11/29 13:47:52;;;;;;;0.30;0.30;;;4.80;99.90;;;;;;4957718;29;20309;-70
2023/11/29 13:50:18;;;;;;;0.70;0.70;;;4.90;99.90;;;;;;4957462;29;20239;-70
2023/11/29 13:52:43;;;;;;;0.30;0.30;;;5.00;99.90;;;;;;4974557;28;20187;-66
2023/11/29 13:55:09;;;;;;;0.30;0.30;;;5.10;99.90;;;;;;4958626;28;20236;-66
2023/11/29 13:57:36;;;;;;;0.30;0.30;;;5.10;99.90;;;;;;4959382;28;20666;-68
2023/11/29 14:00:04;;;;;;;0.32;0.32;;;5.10;99.90;;;;;;4976663;28;20218;-67
2023/11/29 14:02:30;;;;;;;0.30;0.30;;;5.10;99.90;;;;;;4975228;28;20230;-68
2023/11/29 14:04:56;;;;;;;0.30;0.30;;;5.00;99.90;;;;;;4976117;28;20210;-68
2023/11/29 14:07:22;;;;;;;0.30;0.30;;;5.00;99.90;;;;;;4976403;28;20434;-69
2023/11/29 14:09:47;;;;;;;0.43;0.43;;;5.00;99.90;;;;;;4976016;28;20957;-68
2023/11/29 14:12:13;;;;;;;0.30;0.30;;;5.00;99.90;;;;;;4973830;28;20183;-67
2023/11/29 14:14:39;;;;;;;0.30;0.20;;;4.90;99.90;;;;;;4974888;28;20207;-68
2023/11/29 14:17:06;;;;;;;0.40;0.40;;;4.90;99.90;;;;;;4959884;28;20187;-68
2023/11/29 14:19:32;;;;;;;1.15;0.63;;;4.90;99.90;;;;;;4956906;29;20243;-67
2023/11/29 14:21:58;;;;;;;0.30;0.30;;;4.90;99.90;;;;;;4956900;29;20736;-67
2023/11/29 14:24:23;;;;;;;0.30;0.30;;;4.90;99.90;;;;;;4961693;28;20184;-67
2023/11/29 14:26:49;;;;;;;0.40;0.40;;;4.90;99.90;;;;;;4973884;28;20699;-68
2023/11/29 14:29:17;;;;;;;0.30;0.30;;;4.90;99.90;;;;;;4958341;28;20176;-68
2023/11/29 14:31:43;;;;;;;0.30;0.30;;;4.90;99.90;;;;;;4955187;28;20206;-69
2023/11/29 14:34:09;;;;;;;0.40;0.40;;;5.00;99.90;;;;;;4954494;29;20204;-66
2023/11/29 14:36:34;;;;;;;0.30;0.30;;;4.90;99.90;;;;;;4955243;28;20312;-68
2023/11/29 14:39:00;;;;;;;0.30;0.30;;;4.90;99.90;;;;;;4955499;28;20262;-66
2023/11/29 14:41:28;;;;;;;0.30;0.30;;;4.90;99.90;;;;;;4956251;29;20172;-65
2023/11/29 14:43:54;;;;;;;0.30;0.30;;;4.90;99.90;;;;;;4956157;29;20210;-68
2023/11/29 14:46:20;;;;;;;0.40;0.40;;;4.90;99.90;;;;;;4959588;28;20254;-66
2023/11/29 14:48:46;;;;;;;0.30;0.30;;;4.90;99.90;;;;;;4955572;29;20266;-66
2023/11/29 14:51:12;;;;;;;0.30;0.30;;;4.80;99.90;;;;;;4955233;29;20181;-66
2023/11/29 14:53:38;;;;;;;0.30;0.30;;;4.80;99.90;;;;;;4956393;29;20191;-66
2023/11/29 14:56:04;;;;;;;0.30;0.30;;;4.90;99.90;;;;;;4938035;29;20197;-65
2023/11/29 14:58:29;;;;;;;0.30;0.30;;;4.90;99.90;;;;;;4955155;29;20540;-65
2023/11/29 15:00:55;;;;;;;0.30;0.30;;;4.80;99.90;;;;;;4956333;29;20431;-66
2023/11/29 15:03:21;;;;;;;0.30;0.30;;;4.80;99.90;;;;;;4956079;29;20207;-68
2023/11/29 15:05:46;;;;;;;0.30;0.30;;;4.80;99.90;;;;;;4955744;28;20189;-71
2023/11/29 15:08:12;;;;;;;0.30;0.30;;;4.80;99.90;;;;;;4955697;28;20242;-69
2023/11/29 15:10:38;;;;;;;0.40;0.40;;;4.80;99.90;;;;;;4955723;29;20270;-69
2023/11/29 15:13:03;;;;;;;0.30;0.30;;;4.80;99.90;;;;;;4955926;29;20178;-65
2023/11/29 15:15:29;;;;;;;0.40;0.40;;;4.80;99.90;;;;;;4955486;28;20198;-65
2023/11/29 15:17:54;;;;;;;0.30;0.30;;;4.90;99.90;;;;;;4955882;29;20219;-67
2023/11/29 15:20:20;;;;;;;0.30;0.30;;;4.90;99.90;;;;;;4955614;29;20541;-68
2023/11/29 15:22:46;;;;;;;0.30;0.30;;;4.80;99.90;;;;;;4955873;29;20211;-67
2023/11/29 15:25:11;;;;;;;0.30;0.30;;;4.90;99.90;;;;;;4955337;28;20191;-67
2023/11/29 15:27:37;;;;;;;0.30;0.30;;;4.90;99.90;;;;;;4955138;29;20186;-67
2023/11/29 15:30:03;;;;;;;0.40;0.40;;;5.00;99.90;;;;;;4954774;29;20176;-68
2023/11/29 15:32:29;;;;;;;0.30;0.30;;;4.90;99.90;;;;;;4956086;29;20770;-67
2023/11/29 15:34:55;;;;;;;0.30;0.30;;;4.80;99.90;;;;;;4936897;28;20192;-67
2023/11/29 15:37:21;;;;;;;0.40;0.40;;;4.80;99.90;;;;;;4955203;29;20418;-67
2023/11/29 15:39:47;;;;;;;0.30;0.30;;;4.80;99.90;;;;;;4953614;29;20225;-67
2023/11/29 15:42:12;;;;;;;0.40;0.40;;;4.80;99.90;;;;;;4953396;29;20199;-67
2023/11/29 15:44:38;;;;;;;0.30;0.30;;;4.70;99.90;;;;;;4953319;29;20171;-66
2023/11/29 15:47:04;;;;;;;0.30;0.30;;;4.80;99.90;;;;;;4953992;29;20169;-66
2023/11/29 15:49:29;;;;;;;0.30;0.30;;;4.80;99.90;;;;;;4954100;29;20228;-68
2023/11/29 15:51:55;;;;;;;0.40;0.40;;;4.80;99.90;;;;;;4953886;29;20204;-67
2023/11/29 15:54:20;;;;;;;0.30;0.30;;;4.70;99.90;;;;;;4954887;29;20175;-67
2023/11/29 15:56:46;;;;;;;0.30;0.30;;;4.70;99.90;;;;;;4955030;28;20216;-66
2023/11/29 15:59:11;;;;;;;0.30;0.30;;;4.60;99.90;;;;;;4955531;29;20247;-68
2023/11/29 16:01:37;;;;;;;0.30;0.30;;;4.60;99.90;;;;;;4955204;29;20175;-68
2023/11/29 16:04:04;;;;;;;0.30;0.30;;;4.50;99.90;;;;;;4955020;29;20266;-68
2023/11/29 16:06:30;;;;;;;0.30;0.30;;;4.40;99.90;;;;;;4954819;28;20213;-66
2023/11/29 16:08:55;;;;;;;0.30;0.30;;;4.40;99.90;;;;;;4955377;29;20176;-68
2023/11/29 16:11:22;;;;;;;0.40;0.40;;;4.30;99.90;;;;;;4955366;29;20417;-68
2023/11/29 16:13:48;;;;;;;0.30;0.30;;;4.30;99.90;;;;;;4955044;29;20192;-66
2023/11/29 16:16:14;;;;;;;0.40;0.40;;;4.20;99.90;;;;;;4954475;28;20252;-68
2023/11/29 16:18:41;;;;;;;0.30;0.30;;;4.20;99.90;;;;;;4955266;29;20178;-66
2023/11/29 16:21:08;;;;;;;0.30;0.30;;;4.10;99.90;;;;;;4922780;29;20413;-67
2023/11/29 16:23:34;;;;;;;0.30;0.30;;;4.10;99.90;;;;;;4955186;29;20605;-66
2023/11/29 16:26:01;;;;;;;0.40;0.40;;;4.20;99.90;;;;;;4955453;28;20231;-68
2023/11/29 16:28:26;;;;;;;0.35;0.35;;;4.10;99.90;;;;;;4959143;29;20405;-67
2023/11/29 16:30:52;;;;;;;0.50;0.50;;;4.20;99.90;;;;;;4959034;29;20172;-67
2023/11/29 16:33:18;;;;;;;0.30;0.30;;;4.20;99.90;;;;;;4959034;29;20425;-68
2023/11/29 16:35:43;;;;;;;0.40;0.40;;;4.20;99.90;;;;;;4958268;28;20202;-65
2023/11/29 16:38:09;;;;;;;0.40;0.40;;;4.30;99.90;;;;;;4959239;29;20180;-68
2023/11/29 16:40:35;;;;;;;0.40;0.40;;;4.30;99.90;;;;;;4958994;29;20172;-66
2023/11/29 16:43:00;;;;;;;0.30;0.30;;;4.30;99.90;;;;;;4958845;29;20514;-64
2023/11/29 16:45:26;;;;;;;0.40;0.40;;;4.30;99.90;;;;;;4958107;28;20196;-67
2023/11/29 16:47:51;;;;;;;0.77;0.77;;;4.30;99.90;;;;;;4958715;29;20175;-66
2023/11/29 16:50:20;;;;;;;0.60;0.60;;;4.40;99.90;;;;;;4958682;29;20263;-65
2023/11/29 16:52:46;;;;;;;0.30;0.30;;;4.40;99.90;;;;;;4958757;29;20184;-66
2023/11/29 16:55:12;;;;;;;0.40;0.40;;;4.40;99.90;;;;;;4957879;28;20199;-68
2023/11/29 16:57:38;;;;;;;0.35;0.35;;;4.40;99.90;;;;;;4958481;29;21002;-66
2023/11/29 17:00:08;;;;;;;3.70;2.45;;;4.40;99.90;;;;;;4958661;29;20170;-66
2023/11/29 17:02:34;;;;;;;0.40;0.40;;;4.30;99.90;;;;;;4958079;29;20335;-68
2023/11/29 17:05:00;;;;;;;0.30;0.30;;;4.30;99.90;;;;;;4957547;28;20677;-68
2023/11/29 17:07:25;;;;;;;0.80;0.57;;;4.20;99.90;;;;;;4958183;28;20207;-67
2023/11/29 17:09:51;;;;;;;0.40;0.40;;;4.10;99.90;;;;;;4958254;29;20202;-64
2023/11/29 17:12:16;;;;;;;0.33;0.33;;;4.10;99.90;;;;;;4958346;29;20258;-67
2023/11/29 17:14:43;;;;;;;0.30;0.30;;;4.10;99.90;;;;;;4957573;28;20185;-66
2023/11/29 17:17:09;;;;;;;0.35;0.35;;;4.00;99.90;;;;;;4957835;29;20173;-67
2023/11/29 17:19:34;;;;;;;0.30;0.30;;;4.00;99.90;;;;;;4958330;29;20260;-66
2023/11/29 17:22:01;;;;;;;0.30;0.30;;;3.90;99.90;;;;;;4957525;29;20260;-65
2023/11/29 17:24:27;;;;;;;0.30;0.30;;;3.90;99.90;;;;;;4957127;29;20178;-68
2023/11/29 17:26:53;;;;;;;0.30;0.30;;;3.90;99.90;;;;;;4956860;28;20288;-68
2023/11/29 17:29:18;;;;;;;0.30;0.30;;;3.80;99.90;;;;;;4957405;29;20186;-67
2023/11/29 17:31:45;;;;;;;0.30;0.30;;;3.80;99.90;;;;;;4940551;29;20650;-67
2023/11/29 17:34:11;;;;;;;0.45;0.45;;;3.70;99.90;;;;;;4956981;29;20173;-68
2023/11/29 17:36:36;;;;;;;0.30;0.30;;;3.60;99.90;;;;;;4957428;28;20198;-64
2023/11/29 17:39:02;;;;;;;0.40;0.40;;;3.60;99.90;;;;;;4956176;29;20181;-69
2023/11/29 17:41:27;;;;;;;0.30;0.30;;;3.60;99.90;;;;;;4957602;29;20182;-64
2023/11/29 17:43:53;;;;;;;0.47;0.47;;;3.50;99.90;;;;;;4938690;29;20679;-65
2023/11/29 17:46:19;;;;;;;0.40;0.40;;;3.50;99.90;;;;;;4937863;29;20204;-65
2023/11/29 17:48:45;;;;;;;0.30;0.30;;;3.50;99.90;;;;;;4939950;29;20178;-67
2023/11/29 17:51:10;;;;;;;0.30;0.30;;;3.50;99.90;;;;;;4957420;29;20413;-67
2023/11/29 17:53:36;;;;;;;0.30;0.30;;;3.40;99.90;;;;;;4957337;29;20180;-66
2023/11/29 17:56:02;;;;;;;0.30;0.30;;;3.40;99.90;;;;;;4956935;28;20593;-66
2023/11/29 17:58:27;;;;;;;0.30;0.30;;;3.40;99.90;;;;;;4957244;29;20255;-66